Time;durP1;ratioP1;P1;durP2;ratioP2;P2;SDS_P1;SDS_P2;PMS_P1;PMS_P2;Temp;Humidity;BMP_temperature;BMP_pressure;BME280_temperature;BME280_humidity;BME280_pressure;Samples;Min_cycle;Max_cycle;Signal;HPM_P1;HPM_P2
2022/11/18 00:01:28;;;;;;;;;;;;;;;8.52;88.75;96240.41;5083749;28;20415;-60
2022/11/18 00:03:56;;;;;;;;;;;;;;;8.45;88.70;96229.38;5102399;28;19924;-60
2022/11/18 00:06:26;;;;;;;;;;;;;;;8.42;88.30;96230.06;5103136;28;20233;-61
2022/11/18 00:08:56;;;;;;;;;;;;;;;8.39;88.70;96221.47;5105786;28;19924;-59
2022/11/18 00:14:18;;;;;;;;;;;;;;;8.41;88.95;96221.13;5109913;28;19924;-57
2022/11/18 00:16:47;;;;;;;;;;;;;;;8.40;88.79;96219.56;5081685;28;19935;-60
2022/11/18 00:19:17;;;;;;;;;;;;;;;8.37;88.98;96217.53;5111765;28;19924;-60
2022/11/18 00:25:05;;;;;;;;;;;;;;;8.32;89.18;96206.91;5109189;28;20380;-61
2022/11/18 00:27:33;;;;;;;;;;;;;;;8.30;89.17;96207.22;5111668;28;19931;-61
2022/11/18 00:30:03;;;;;;;;;;;;;;;8.25;89.33;96199.34;5113468;28;19924;-60
2022/11/18 00:32:31;;;;;;;;;;;;;;;8.29;89.23;96211.06;5105063;28;20383;-59
2022/11/18 00:37:51;;;;;;;;;;;;;;;8.20;89.70;96201.47;5114321;28;20315;-61
2022/11/18 00:40:21;;;;;;;;;;;;;;;8.17;89.72;96213.78;5078180;28;19928;-55
2022/11/18 00:42:55;;;;;;;;;;;;;;;8.23;89.70;96220.53;5093580;28;20006;-61
2022/11/18 00:45:23;;;;;;;;;;;;;;;8.19;89.79;96225.03;5110213;28;19931;-61
2022/11/18 00:47:51;;;;;;;;;;;;;;;8.19;89.49;96222.31;5108109;28;20369;-61
2022/11/18 00:50:19;;;;;;;;;;;;;;;8.15;89.70;96221.44;5110993;28;20261;-61
2022/11/18 00:52:47;;;;;;;;;;;;;;;8.17;89.51;96216.47;5088649;28;19947;-62
2022/11/18 00:55:15;;;;;;;;;;;;;;;8.20;89.68;96213.09;5105989;28;19931;-61
2022/11/18 00:57:44;;;;;;;;;;;;;;;8.13;89.77;96223.69;5106884;28;19924;-61
2022/11/18 01:00:13;;;;;;;;;;;;;;;8.18;89.75;96228.09;5113129;28;19924;-61
2022/11/18 01:02:41;;;;;;;;;;;;;;;8.14;89.60;96217.91;5105012;28;20388;-61
2022/11/18 01:05:09;;;;;;;;;;;;;;;8.14;89.74;96219.84;5109810;28;20372;-60
2022/11/18 01:07:37;;;;;;;;;;;;;;;8.08;89.69;96223.91;5111996;28;19935;-61
2022/11/18 01:10:05;;;;;;;;;;;;;;;8.10;89.70;96218.97;5105652;28;19967;-61
2022/11/18 01:15:25;;;;;;;;;;;;;;;8.08;89.79;96227.38;5108537;28;20295;-59
2022/11/18 01:17:53;;;;;;;;;;;;;;;8.03;89.82;96224.91;5092591;28;19957;-61
2022/11/18 01:20:21;;;;;;;;;;;;;;;8.01;89.66;96226.38;5088723;28;19931;-60
2022/11/18 01:22:50;;;;;;;;;;;;;;;7.91;89.69;96226.81;5104621;28;20011;-60
2022/11/18 01:25:18;;;;;;;;;;;;;;;7.92;89.75;96222.97;5106299;28;19950;-61
2022/11/18 01:27:46;;;;;;;;;;;;;;;7.89;89.72;96221.75;5093955;28;19963;-60
2022/11/18 01:30:15;;;;;;;;;;;;;;;7.77;89.93;96229.78;5110005;28;19935;-60
2022/11/18 01:32:45;;;;;;;;;;;;;;;7.77;90.25;96218.97;5109266;28;20388;-60
2022/11/18 01:35:13;;;;;;;;;;;;;;;7.74;90.16;96225.06;5101569;28;19935;-61
2022/11/18 01:37:42;;;;;;;;;;;;;;;7.68;90.42;96221.78;5077008;28;19935;-60
2022/11/18 01:40:10;;;;;;;;;;;;;;;7.63;90.62;96227.41;5103943;28;20399;-61
2022/11/18 01:42:38;;;;;;;;;;;;;;;7.60;90.73;96233.47;5098024;28;20365;-61
2022/11/18 01:45:09;;;;;;;;;;;;;;;7.59;90.79;96238.09;5107571;28;20395;-61
2022/11/18 01:47:39;;;;;;;;;;;;;;;7.57;90.76;96242.25;5109855;28;20442;-61
2022/11/18 01:50:09;;;;;;;;;;;;;;;7.57;90.89;96243.03;5100498;28;20352;-61
2022/11/18 01:53:01;;;;;;;;;;;;;;;7.59;91.10;96248.09;5102343;28;20269;-59
2022/11/18 01:55:31;;;;;;;;;;;;;;;7.65;91.12;96251.38;5109256;28;20426;-61
2022/11/18 01:58:02;;;;;;;;;;;;;;;7.68;90.93;96248.03;5082607;28;19928;-58
2022/11/18 02:00:30;;;;;;;;;;;;;;;7.71;91.11;96252.75;5095288;28;19931;-61
2022/11/18 02:02:58;;;;;;;;;;;;;;;7.72;91.01;96252.41;5105095;28;20420;-61
2022/11/18 02:05:52;;;;;;;;;;;;;;;7.74;90.86;96249.41;5110243;28;19924;-60
2022/11/18 02:08:21;;;;;;;;;;;;;;;7.77;91.07;96260.31;5090628;28;19970;-59
2022/11/18 02:10:49;;;;;;;;;;;;;;;7.82;90.86;96257.41;5111321;28;19928;-60
2022/11/18 02:13:18;;;;;;;;;;;;;;;7.83;90.83;96250.91;5107715;28;19923;-61
2022/11/18 02:15:47;;;;;;;;;;;;;;;7.83;90.46;96252.81;5085068;28;19955;-61
2022/11/18 02:18:41;;;;;;;;;;;;;;;7.83;90.48;96237.38;5089424;28;19924;-60
2022/11/18 02:21:12;;;;;;;;;;;;;;;7.83;90.35;96237.38;5116812;27;19931;-60
2022/11/18 02:24:05;;;;;;;;;;;;;;;7.85;90.23;96237.03;5086446;28;19981;-61
2022/11/18 02:26:42;;;;;;;;;;;;;;;7.79;90.18;96241.88;5066613;28;19932;-60
2022/11/18 02:29:11;;;;;;;;;;;;;;;7.76;90.20;96230.94;5077187;28;20277;-60
2022/11/18 02:31:42;;;;;;;;;;;;;;;7.75;90.14;96230.13;5060893;28;19935;-61
2022/11/18 02:34:13;;;;;;;;;;;;;;;7.69;90.17;96230.69;5068921;28;19925;-61
2022/11/18 02:36:42;;;;;;;;;;;;;;;7.63;90.29;96234.72;5064146;28;19935;-61
2022/11/18 02:39:11;;;;;;;;;;;;;;;7.61;90.40;96235.81;5066735;28;19925;-61
2022/11/18 02:41:39;;;;;;;;;;;;;;;7.62;90.53;96233.94;5068000;28;20265;-61
2022/11/18 02:44:08;;;;;;;;;;;;;;;7.64;90.70;96228.97;5069405;28;20274;-61
2022/11/18 02:46:37;;;;;;;;;;;;;;;7.64;90.67;96234.38;5068934;28;19986;-61
2022/11/18 02:49:11;;;;;;;;;;;;;;;7.66;90.76;96232.13;5066192;28;19932;-60
2022/11/18 02:51:39;;;;;;;;;;;;;;;7.67;90.58;96233.72;5064117;28;19928;-57
2022/11/18 02:54:07;;;;;;;;;;;;;;;7.70;90.51;96232.25;5068696;28;19928;-60
2022/11/18 02:56:35;;;;;;;;;;;;;;;7.70;90.28;96233.06;5070241;28;19928;-60
2022/11/18 02:59:04;;;;;;;;;;;;;;;7.69;90.04;96227.97;5075997;28;20686;-60
2022/11/18 03:01:32;;;;;;;;;;;;;;;7.65;90.34;96245.97;5070634;28;19924;-61
2022/11/18 03:04:02;;;;;;;;;;;;;;;7.66;90.34;96240.25;5058298;28;20355;-60
2022/11/18 03:06:31;;;;;;;;;;;;;;;7.67;90.30;96227.50;5067011;28;20594;-60
2022/11/18 03:09:02;;;;;;;;;;;;;;;7.69;90.38;96230.69;5056871;28;19934;-59
2022/11/18 03:11:31;;;;;;;;;;;;;;;7.71;90.00;96237.31;5067676;28;19931;-61
2022/11/18 03:14:05;;;;;;;;;;;;;;;7.71;90.05;96229.22;5064886;28;19974;-60
2022/11/18 03:16:34;;;;;;;;;;;;;;;7.70;90.02;96235.75;5066326;28;19990;-59
2022/11/18 03:19:05;;;;;;;;;;;;;;;7.69;89.97;96238.78;5059494;28;20331;-62
2022/11/18 03:21:35;;;;;;;;;;;;;;;7.70;89.88;96230.34;5071310;28;19924;-61
2022/11/18 03:24:29;;;;;;;;;;;;;;;7.75;90.06;96232.06;5072756;28;19932;-60
2022/11/18 03:26:59;;;;;;;;;;;;;;;7.76;89.77;96242.53;5107892;28;20008;-61
2022/11/18 03:29:29;;;;;;;;;;;;;;;7.76;89.87;96252.56;5110462;28;19928;-62
2022/11/18 03:31:59;;;;;;;;;;;;;;;7.71;89.65;96250.84;5101684;28;19924;-60
2022/11/18 03:34:55;;;;;;;;;;;;;;;7.73;89.83;96264.03;5106038;28;19950;-62
2022/11/18 03:37:49;;;;;;;;;;;;;;;7.74;89.81;96263.72;5097859;28;19924;-61
2022/11/18 03:40:18;;;;;;;;;;;;;;;7.74;89.90;96271.81;5106460;28;20269;-61
2022/11/18 03:42:47;;;;;;;;;;;;;;;7.73;89.38;96278.34;5113517;27;19924;-62
2022/11/18 03:45:16;;;;;;;;;;;;;;;7.72;89.37;96275.97;5113917;27;19930;-61
2022/11/18 03:47:45;;;;;;;;;;;;;;;7.69;89.95;96266.63;5080978;28;19932;-63
2022/11/18 03:50:17;;;;;;;;;;;;;;;7.71;89.63;96263.56;5078484;28;19930;-61
2022/11/18 03:52:45;;;;;;;;;;;;;;;7.75;89.80;96273.38;5110535;28;19935;-61
2022/11/18 03:55:15;;;;;;;;;;;;;;;7.76;89.87;96269.56;5108156;28;20142;-61
2022/11/18 03:57:45;;;;;;;;;;;;;;;7.77;89.64;96265.72;5108970;28;19923;-61
2022/11/18 04:00:13;;;;;;;;;;;;;;;7.77;89.49;96256.81;5113194;28;19924;-61
2022/11/18 04:02:41;;;;;;;;;;;;;;;7.86;89.56;96263.72;5108279;28;20443;-61
2022/11/18 04:05:10;;;;;;;;;;;;;;;7.88;89.37;96263.38;5110230;28;19934;-61
2022/11/18 04:07:42;;;;;;;;;;;;;;;7.86;89.30;96274.56;5109148;28;19967;-61
2022/11/18 04:10:12;;;;;;;;;;;;;;;7.87;89.45;96276.13;5109789;28;20397;-61
2022/11/18 04:12:42;;;;;;;;;;;;;;;7.90;89.42;96274.69;5091402;28;20493;-61
2022/11/18 04:15:10;;;;;;;;;;;;;;;7.86;89.54;96274.56;5105434;28;19947;-61
2022/11/18 04:17:40;;;;;;;;;;;;;;;7.83;89.60;96274.44;5118884;28;19924;-61
2022/11/18 04:20:12;;;;;;;;;;;;;;;7.91;89.67;96281.66;5106849;28;19923;-60
2022/11/18 04:22:39;;;;;;;;;;;;;;;7.93;89.66;96287.53;5093590;28;19928;-62
2022/11/18 04:25:09;;;;;;;;;;;;;;;7.93;89.21;96287.53;5107402;28;19928;-61
2022/11/18 04:28:02;;;;;;;;;;;;;;;7.91;89.38;96289.00;5110415;28;20352;-62
2022/11/18 04:30:32;;;;;;;;;;;;;;;7.91;89.61;96292.47;5104537;28;19932;-60
2022/11/18 04:33:24;;;;;;;;;;;;;;;7.93;89.24;96289.44;5109756;28;20040;-60
2022/11/18 04:36:16;;;;;;;;;;;;;;;7.90;89.45;96300.94;5082176;28;19931;-61
2022/11/18 04:38:45;;;;;;;;;;;;;;;7.87;89.55;96300.47;5103498;28;19928;-62
2022/11/18 04:41:14;;;;;;;;;;;;;;;7.86;89.79;96300.81;5109364;28;20365;-61
2022/11/18 04:43:42;;;;;;;;;;;;;;;7.86;90.18;96300.81;5094712;28;19924;-60
2022/11/18 04:46:10;;;;;;;;;;;;;;;7.80;89.83;96299.44;5091880;28;19931;-61
2022/11/18 04:48:40;;;;;;;;;;;;;;;7.83;89.75;96290.66;5089568;28;19924;-60
2022/11/18 04:51:33;;;;;;;;;;;;;;;7.81;89.77;96299.09;5107625;28;20016;-60
2022/11/18 04:56:55;;;;;;;;;;;;;;;7.83;89.86;96299.56;5110485;28;20288;-62
2022/11/18 04:59:23;;;;;;;;;;;;;;;7.84;89.95;96298.44;5093593;28;19924;-59
2022/11/18 05:01:52;;;;;;;;;;;;;;;7.79;89.69;96301.34;5103552;28;19924;-60
2022/11/18 05:04:20;;;;;;;;;;;;;;;7.80;90.04;96294.81;5110183;28;19928;-58
2022/11/18 05:06:48;;;;;;;;;;;;;;;7.78;90.02;96288.97;5106083;28;19924;-59
2022/11/18 05:09:16;;;;;;;;;;;;;;;7.77;90.04;96295.47;5095254;28;19931;-60
2022/11/18 05:14:55;;;;;;;;;;;;;;;7.91;89.88;96294.41;5110709;27;19923;-62
2022/11/18 05:17:24;;;;;;;;;;;;;;;7.92;89.86;96298.69;5108396;28;20002;-61
2022/11/18 05:19:52;;;;;;;;;;;;;;;7.91;89.85;96300.59;5109063;27;19931;-61
2022/11/18 05:22:21;;;;;;;;;;;;;;;7.95;89.69;96303.44;5103371;28;19924;-60
2022/11/18 05:24:49;;;;;;;;;;;;;;;7.90;89.57;96306.34;5102955;28;19931;-61
2022/11/18 05:27:17;;;;;;;;;;;;;;;7.85;89.34;96302.72;5091947;28;19923;-60
2022/11/18 05:29:45;;;;;;;;;;;;;;;7.85;89.56;96300.00;5110577;28;19928;-61
2022/11/18 05:32:17;;;;;;;;;;;;;;;7.82;89.53;96306.06;5110934;27;19949;-61
2022/11/18 05:34:46;;;;;;;;;;;;;;;7.79;89.34;96301.34;5094199;27;19931;-61
2022/11/18 05:37:39;;;;;;;;;;;;;;;7.82;89.43;96303.38;5096117;27;19923;-61
2022/11/18 05:40:08;;;;;;;;;;;;;;;7.83;89.32;96310.38;5102542;27;19924;-60
2022/11/18 05:45:22;;;;;;;;;;;;;;;7.87;89.35;96313.19;5103174;27;19932;-60
2022/11/18 05:48:03;;;;;;;;;;;;;;;7.88;89.11;96312.88;5102157;27;20502;-61
2022/11/18 05:50:36;;;;;;;;;;;;;;;7.88;89.10;96317.47;5118218;27;20072;-60
2022/11/18 05:53:04;;;;;;;;;;;;;;;7.89;88.98;96316.38;5106295;28;19924;-61
2022/11/18 05:55:34;;;;;;;;;;;;;;;7.88;88.80;96318.28;5108229;28;20261;-62
2022/11/18 05:58:02;;;;;;;;;;;;;;;7.90;88.63;96317.94;5102740;28;19930;-61
2022/11/18 06:00:31;;;;;;;;;;;;;;;7.92;88.95;96328.41;5105152;28;19923;-61
2022/11/18 06:02:58;;;;;;;;;;;;;;;7.92;88.98;96328.41;5113023;27;19937;-61
2022/11/18 06:05:52;;;;;;;;;;;;;;;7.92;88.64;96326.50;5115004;27;19923;-61
2022/11/18 06:08:21;;;;;;;;;;;;;;;7.91;88.67;96326.84;5092050;28;19927;-55
2022/11/18 06:10:50;;;;;;;;;;;;;;;7.93;88.50;96332.69;5083314;28;19931;-58
2022/11/18 06:13:19;;;;;;;;;;;;;;;7.91;88.56;96330.34;5109386;28;19977;-57
2022/11/18 06:15:47;;;;;;;;;;;;;;;7.91;88.41;96329.53;5103232;28;19985;-58
2022/11/18 06:21:09;;;;;;;;;;;;;;;7.95;87.39;96338.59;5102405;28;19931;-60
2022/11/18 06:23:39;;;;;;;;;;;;;;;7.98;86.56;96340.59;5109071;27;19931;-56
2022/11/18 06:26:08;;;;;;;;;;;;;;;7.94;86.22;96339.72;5107895;27;19924;-57
2022/11/18 06:28:36;;;;;;;;;;;;;;;7.93;86.33;96341.59;5101935;27;20530;-56
2022/11/18 06:31:04;;;;;;;;;;;;;;;7.93;85.85;96338.91;5108959;27;19931;-55
2022/11/18 06:33:58;;;;;;;;;;;;;;;7.94;85.51;96345.91;5099872;28;19931;-56
2022/11/18 06:36:50;;;;;;;;;;;;;;;7.94;85.80;96359.44;5102466;28;19923;-56
2022/11/18 06:39:20;;;;;;;;;;;;;;;7.93;86.25;96351.63;5108511;28;19931;-56
2022/11/18 06:41:48;;;;;;;;;;;;;;;7.94;86.42;96362.13;5111572;28;19924;-57
2022/11/18 06:44:15;;;;;;;;;;;;;;;7.98;85.63;96363.03;5099832;28;19935;-57
2022/11/18 06:47:08;;;;;;;;;;;;;;;8.02;85.38;96368.56;5106597;28;19931;-57
2022/11/18 06:49:36;;;;;;;;;;;;;;;7.98;84.76;96363.03;5094715;28;19931;-57
2022/11/18 06:52:04;;;;;;;;;;;;;;;7.93;85.19;96367.84;5076766;28;20381;-57
2022/11/18 06:54:34;;;;;;;;;;;;;;;7.93;85.58;96370.56;5087018;28;19924;-57
2022/11/18 06:57:02;;;;;;;;;;;;;;;7.90;85.25;96371.22;5092460;28;19932;-58
2022/11/18 06:59:31;;;;;;;;;;;;;;;7.92;85.46;96379.78;5105400;28;20387;-57
2022/11/18 07:01:58;;;;;;;;;;;;;;;7.97;85.21;96390.41;5111506;27;19954;-57
2022/11/18 07:04:27;;;;;;;;;;;;;;;7.98;84.76;96392.00;5110207;28;19928;-57
2022/11/18 07:06:55;;;;;;;;;;;;;;;7.98;85.18;96394.69;5099951;28;19924;-58
2022/11/18 07:09:26;;;;;;;;;;;;;;;7.96;85.34;96396.94;5108756;28;20004;-56
2022/11/18 07:11:55;;;;;;;;;;;;;;;7.94;85.00;96397.28;5087357;28;19935;-58
2022/11/18 07:14:24;;;;;;;;;;;;;;;7.97;85.16;96401.22;5108314;28;19923;-57
2022/11/18 07:16:52;;;;;;;;;;;;;;;7.96;84.98;96402.34;5110872;28;19941;-56
2022/11/18 07:19:20;;;;;;;;;;;;;;;7.98;85.00;96405.50;5111575;28;19962;-56
2022/11/18 07:21:49;;;;;;;;;;;;;;;8.03;84.47;96405.31;5107541;28;19924;-57
2022/11/18 07:24:18;;;;;;;;;;;;;;;8.03;84.42;96408.00;5099802;28;19981;-55
2022/11/18 07:26:48;;;;;;;;;;;;;;;8.03;84.10;96411.50;5103450;28;21241;-57
2022/11/18 07:29:18;;;;;;;;;;;;;;;7.99;84.57;96413.31;5115152;28;19977;-57
2022/11/18 07:31:46;;;;;;;;;;;;;;;7.92;85.24;96417.66;5101792;28;20573;-55
2022/11/18 07:34:15;;;;;;;;;;;;;;;7.94;85.39;96415.44;5111102;27;20463;-58
2022/11/18 07:36:43;;;;;;;;;;;;;;;7.92;85.80;96425.75;5108797;28;19923;-57
2022/11/18 07:39:12;;;;;;;;;;;;;;;7.97;85.61;96428.28;5107325;28;19931;-57
2022/11/18 07:44:33;;;;;;;;;;;;;;;7.91;86.39;96421.47;5080325;28;20296;-57
2022/11/18 07:47:01;;;;;;;;;;;;;;;7.94;86.09;96423.53;5113490;28;19928;-57
2022/11/18 07:49:29;;;;;;;;;;;;;;;7.92;86.42;96433.88;5114145;27;19931;-57
2022/11/18 07:51:57;;;;;;;;;;;;;;;7.89;86.56;96435.34;5091828;28;20457;-58
2022/11/18 07:54:26;;;;;;;;;;;;;;;7.89;87.03;96435.34;5102113;28;19928;-57
2022/11/18 07:57:19;;;;;;;;;;;;;;;7.91;86.64;96426.88;5115146;27;19927;-57
2022/11/18 08:00:14;;;;;;;;;;;;;;;8.03;85.76;96440.47;5113411;27;19938;-57
2022/11/18 08:02:42;;;;;;;;;;;;;;;8.01;85.74;96443.50;5112910;27;20291;-55
2022/11/18 08:05:11;;;;;;;;;;;;;;;8.02;85.23;96438.88;5111081;27;19965;-57
2022/11/18 08:07:45;;;;;;;;;;;;;;;8.01;85.36;96448.13;5112989;28;19928;-58
2022/11/18 08:10:14;;;;;;;;;;;;;;;7.98;85.27;96448.78;5112764;27;19932;-58
2022/11/18 08:12:42;;;;;;;;;;;;;;;7.98;85.80;96444.16;5109444;28;19967;-55
2022/11/18 08:15:11;;;;;;;;;;;;;;;8.00;85.75;96457.38;5112047;27;19939;-57
2022/11/18 08:17:40;;;;;;;;;;;;;;;7.99;85.78;96455.75;5088413;28;19924;-56
2022/11/18 08:20:09;;;;;;;;;;;;;;;7.99;85.74;96450.34;5107502;28;20280;-57
2022/11/18 08:22:38;;;;;;;;;;;;;;;7.95;85.83;96457.56;5105206;28;19927;-57
2022/11/18 08:25:08;;;;;;;;;;;;;;;8.03;85.54;96457.47;5096676;28;20415;-57
2022/11/18 08:28:01;;;;;;;;;;;;;;;8.00;85.24;96458.16;5107421;28;19925;-57
2022/11/18 08:30:29;;;;;;;;;;;;;;;8.06;84.91;96467.66;5100113;28;19931;-55
2022/11/18 08:36:17;;;;;;;;;;;;;;;8.03;84.66;96468.31;5109087;27;19981;-57
2022/11/18 08:38:46;;;;;;;;;;;;;;;8.05;84.45;96468.78;5084627;27;19927;-57
2022/11/18 08:41:15;;;;;;;;;;;;;;;7.99;84.38;96472.00;5114360;27;19924;-57
2022/11/18 08:43:43;;;;;;;;;;;;;;;8.02;84.25;96471.34;5090151;28;20401;-57
2022/11/18 08:46:11;;;;;;;;;;;;;;;7.98;83.89;96473.91;5108991;27;19928;-57
2022/11/18 08:48:41;;;;;;;;;;;;;;;7.94;84.54;96472.22;5111978;28;20330;-57
2022/11/18 08:51:09;;;;;;;;;;;;;;;8.02;83.91;96476.75;5094973;27;19924;-57
2022/11/18 08:54:03;;;;;;;;;;;;;;;8.10;83.91;96486.72;5113832;27;19935;-57
2022/11/18 08:56:31;;;;;;;;;;;;;;;7.97;84.00;96488.56;5084739;28;19924;-57
2022/11/18 08:58:59;;;;;;;;;;;;;;;7.99;84.07;96491.75;5110037;27;19953;-55
2022/11/18 09:01:28;;;;;;;;;;;;;;;7.92;84.22;96487.97;5108667;27;19928;-57
2022/11/18 09:03:57;;;;;;;;;;;;;;;7.94;83.70;96486.53;5116924;27;19923;-56
2022/11/18 09:06:26;;;;;;;;;;;;;;;7.92;84.39;96494.16;5091701;28;19928;-56
2022/11/18 09:08:56;;;;;;;;;;;;;;;8.05;83.22;96489.63;5107777;27;19947;-57
2022/11/18 09:11:30;;;;;;;;;;;;;;;8.00;83.50;96497.94;5106566;27;19931;-55
2022/11/18 09:13:59;;;;;;;;;;;;;;;7.94;83.64;96486.53;5107149;27;19936;-57
2022/11/18 09:16:47;;;;;;;;;;;;;;;8.05;83.22;96497.75;5113302;27;19923;-57
2022/11/18 09:19:17;;;;;;;;;;;;;;;8.04;82.95;96501.53;5119234;27;19934;-57
2022/11/18 09:25:00;;;;;;;;;;;;;;;7.94;83.46;96496.56;5100803;28;19924;-55
2022/11/18 09:27:28;;;;;;;;;;;;;;;7.90;83.96;96495.63;5083869;28;19978;-57
2022/11/18 09:29:57;;;;;;;;;;;;;;;8.01;83.45;96497.59;5101992;28;19923;-56
2022/11/18 09:32:25;;;;;;;;;;;;;;;7.99;83.52;96509.84;5103194;28;19924;-57
2022/11/18 09:34:55;;;;;;;;;;;;;;;7.97;83.19;96512.09;5104993;27;19924;-55
2022/11/18 09:37:49;;;;;;;;;;;;;;;8.01;83.45;96521.16;5105559;27;19939;-57
2022/11/18 09:40:17;;;;;;;;;;;;;;;8.07;82.39;96517.91;5104523;27;19924;-57
2022/11/18 09:43:13;;;;;;;;;;;;;;;8.07;82.60;96509.81;5111349;27;19932;-57
2022/11/18 09:45:44;;;;;;;;;;;;;;;8.05;81.66;96524.78;5088823;28;19934;-57
2022/11/18 09:48:13;;;;;;;;;;;;;;;8.01;82.61;96518.44;5107281;28;19928;-57
2022/11/18 09:50:43;;;;;;;;;;;;;;;7.95;83.35;96517.06;5089673;28;19924;-57
2022/11/18 09:53:19;;;;;;;;;;;;;;;8.06;82.08;96520.97;5083342;28;19928;-57
2022/11/18 09:55:48;;;;;;;;;;;;;;;8.10;82.19;96530.81;5104180;27;19927;-55
2022/11/18 09:58:18;;;;;;;;;;;;;;;8.03;81.94;96525.09;5094346;28;20296;-55
2022/11/18 10:03:38;;;;;;;;;;;;;;;8.02;82.43;96530.84;5081379;28;19985;-57
2022/11/18 10:06:14;;;;;;;;;;;;;;;8.01;82.12;96531.97;5104041;28;19923;-56
2022/11/18 10:08:50;;;;;;;;;;;;;;;7.94;82.50;96532.50;5092211;28;20019;-57
2022/11/18 10:11:19;;;;;;;;;;;;;;;7.99;82.25;96540.44;5089423;28;19970;-57
2022/11/18 10:13:49;;;;;;;;;;;;;;;7.94;82.78;96532.50;5089414;28;19924;-57
2022/11/18 10:16:21;;;;;;;;;;;;;;;7.94;83.38;96537.13;5114524;27;20317;-57
2022/11/18 10:18:52;;;;;;;;;;;;;;;7.90;84.10;96536.19;5110132;28;19973;-57
2022/11/18 10:21:35;;;;;;;;;;;;;;;7.85;84.05;96545.25;5091347;28;19934;-57
2022/11/18 10:24:27;;;;;;;;;;;;;;;7.84;84.61;96549.88;5108232;27;19924;-57
2022/11/18 10:26:57;;;;;;;;;;;;;;;7.90;83.98;96547.00;5111202;27;19931;-57
2022/11/18 10:29:25;;;;;;;;;;;;;;;7.90;83.19;96555.09;5110005;27;20323;-56
2022/11/18 10:31:54;;;;;;;;;;;;;;;7.92;83.76;96542.84;5094044;27;19934;-57
2022/11/18 10:34:27;;;;;;;;;;;;;;;7.99;83.44;96551.25;5104973;27;19946;-56
2022/11/18 10:37:01;;;;;;;;;;;;;;;7.96;84.17;96553.78;5103509;28;19959;-56
2022/11/18 10:39:29;;;;;;;;;;;;;;;7.88;84.36;96553.53;5101898;28;19965;-57
2022/11/18 10:41:59;;;;;;;;;;;;;;;7.89;84.40;96557.03;5086694;28;19976;-57
2022/11/18 10:44:28;;;;;;;;;;;;;;;7.92;83.80;96561.75;5116415;28;19976;-56
2022/11/18 10:46:56;;;;;;;;;;;;;;;7.93;84.19;96552.53;5086688;28;19931;-56
2022/11/18 10:49:24;;;;;;;;;;;;;;;7.96;83.58;96564.63;5087883;28;19931;-56
2022/11/18 10:52:06;;;;;;;;;;;;;;;7.85;84.58;96564.97;5085621;28;19924;-55
2022/11/18 10:54:35;;;;;;;;;;;;;;;7.92;84.67;96566.38;5109549;28;19924;-54
2022/11/18 10:57:04;;;;;;;;;;;;;;;7.86;84.32;96561.16;5091314;28;19931;-57
2022/11/18 10:59:33;;;;;;;;;;;;;;;7.91;85.09;96562.09;5114598;28;19930;-56
2022/11/18 11:04:57;;;;;;;;;;;;;;;7.99;84.02;96562.06;5113996;28;19947;-56
2022/11/18 11:07:28;;;;;;;;;;;;;;;7.96;84.36;96564.63;5095202;28;19958;-56
2022/11/18 11:10:00;;;;;;;;;;;;;;;7.86;84.79;96563.84;5098128;28;20012;-55
2022/11/18 11:12:29;;;;;;;;;;;;;;;7.84;85.21;96563.41;5108143;28;20010;-59
2022/11/18 11:15:22;;;;;;;;;;;;;;;7.86;85.49;96566.56;5109778;28;19927;-55
2022/11/18 11:18:40;;;;;;;;;;;;;;;7.93;84.93;96549.81;5114384;28;19928;-56
2022/11/18 11:21:08;;;;;;;;;;;;;;;7.97;84.96;96563.50;5110913;28;20295;-56
2022/11/18 11:23:39;;;;;;;;;;;;;;;7.93;85.39;96560.63;5091415;28;20330;-56
2022/11/18 11:26:08;;;;;;;;;;;;;;;7.95;85.35;96563.03;5108734;28;19924;-56
2022/11/18 11:28:58;;;;;;;;;;;;;;;8.01;85.00;96567.13;5115585;28;19928;-56
2022/11/18 11:31:27;;;;;;;;;;;;;;;8.01;84.97;96573.34;5109236;28;19980;-56
2022/11/18 11:36:51;;;;;;;;;;;;;;;8.01;85.19;96570.63;5089782;28;19927;-57
2022/11/18 11:39:34;;;;;;;;;;;;;;;7.96;85.33;96570.03;5111710;28;20365;-54
2022/11/18 11:42:05;;;;;;;;;;;;;;;7.96;85.29;96573.50;5110061;28;19924;-56
2022/11/18 11:44:37;;;;;;;;;;;;;;;8.00;85.22;96569.03;5101274;28;19932;-56
2022/11/18 11:49:57;;;;;;;;;;;;;;;8.14;84.27;96566.88;5109214;28;19928;-57
2022/11/18 11:52:29;;;;;;;;;;;;;;;8.10;84.60;96570.59;5098683;28;19951;-58
2022/11/18 11:55:00;;;;;;;;;;;;;;;8.06;85.10;96572.34;5115354;28;20412;-56
2022/11/18 11:57:33;;;;;;;;;;;;;;;8.13;84.70;96572.63;5112512;28;19931;-56
2022/11/18 12:00:01;;;;;;;;;;;;;;;8.09;84.83;96564.34;5112178;27;19932;-55
2022/11/18 12:02:50;;;;;;;;;;;;;;;8.06;84.86;96572.34;5118823;27;19972;-56
2022/11/18 12:05:21;;;;;;;;;;;;;;;8.01;85.55;96572.53;5121065;27;20387;-54
2022/11/18 12:08:15;;;;;;;;;;;;;;;8.05;85.71;96578.88;5122186;27;19931;-55
2022/11/18 12:10:46;;;;;;;;;;;;;;;8.08;85.11;96568.19;5110492;28;19930;-56
2022/11/18 12:13:17;;;;;;;;;;;;;;;8.09;85.24;96575.19;5107502;28;20070;-56
2022/11/18 12:15:48;;;;;;;;;;;;;;;8.14;84.97;96579.59;5111892;28;19966;-56
2022/11/18 12:18:41;;;;;;;;;;;;;;;8.19;85.06;96584.81;5119125;27;21885;-55
2022/11/18 12:21:10;;;;;;;;;;;;;;;8.22;84.99;96575.28;5096528;27;19924;-57
2022/11/18 12:23:38;;;;;;;;;;;;;;;8.17;85.62;96580.88;5119540;27;20371;-56
2022/11/18 12:26:08;;;;;;;;;;;;;;;8.26;85.05;96584.34;5118683;27;19959;-55
2022/11/18 12:28:37;;;;;;;;;;;;;;;8.24;84.91;96578.44;5110175;27;19924;-55
2022/11/18 12:31:28;;;;;;;;;;;;;;;8.19;85.18;96584.03;5118760;27;19932;-56
2022/11/18 12:36:49;;;;;;;;;;;;;;;8.32;84.50;96578.41;5089849;28;19978;-55
2022/11/18 12:39:38;;;;;;;;;;;;;;;8.41;83.97;96586.47;5099632;28;19931;-57
2022/11/18 12:44:55;;;;;;;;;;;;;;;8.32;83.81;96586.50;5112741;27;19935;-57
2022/11/18 12:47:38;;;;;;;;;;;;;;;8.26;84.16;96589.75;5109478;28;19923;-56
2022/11/18 12:50:08;;;;;;;;;;;;;;;8.26;84.39;96587.81;5107904;28;19928;-56
2022/11/18 12:52:52;;;;;;;;;;;;;;;8.23;84.98;96591.19;5116979;27;19927;-56
2022/11/18 12:55:22;;;;;;;;;;;;;;;8.31;84.59;96590.34;5088297;27;19933;-56
2022/11/18 12:57:52;;;;;;;;;;;;;;;8.30;84.44;96596.84;5113289;27;19923;-56
2022/11/18 13:00:54;;;;;;;;;;;;;;;8.40;84.39;96601.91;5111726;27;20041;-56
2022/11/18 13:03:27;;;;;;;;;;;;;;;8.36;84.03;96600.19;5113004;27;19932;-56
2022/11/18 13:05:58;;;;;;;;;;;;;;;8.23;84.52;96598.50;5111077;28;19927;-57
2022/11/18 13:19:34;;;;;;;;;;;;;;;8.27;84.57;96604.84;5091504;27;19932;-57
2022/11/18 13:24:51;;;;;;;;;;;;;;;8.39;84.15;96611.16;5113043;27;20014;-56
2022/11/18 13:27:22;;;;;;;;;;;;;;;8.34;84.19;96605.91;5107148;28;19924;-54
2022/11/18 13:29:53;;;;;;;;;;;;;;;8.21;84.70;96606.16;5100135;28;20008;-56
2022/11/18 13:32:22;;;;;;;;;;;;;;;8.18;85.25;96620.34;5107693;27;20364;-56
2022/11/18 13:34:50;;;;;;;;;;;;;;;8.13;85.24;96610.50;5107280;28;20368;-56
2022/11/18 13:37:20;;;;;;;;;;;;;;;8.25;84.95;96620.59;5110723;28;19969;-56
2022/11/18 13:40:15;;;;;;;;;;;;;;;8.10;85.41;96613.88;5087142;28;19927;-56
2022/11/18 13:42:45;;;;;;;;;;;;;;;8.13;86.07;96616.69;5105994;28;19924;-56
2022/11/18 13:45:17;;;;;;;;;;;;;;;8.11;85.80;96615.44;5080740;28;19928;-57
2022/11/18 13:47:46;;;;;;;;;;;;;;;8.16;85.16;96617.97;5107119;28;19930;-57
2022/11/18 13:50:19;;;;;;;;;;;;;;;8.11;85.62;96621.66;5104919;28;19930;-57
2022/11/18 13:52:49;;;;;;;;;;;;;;;8.15;85.32;96621.78;5106254;28;20289;-57
2022/11/18 13:55:18;;;;;;;;;;;;;;;8.15;84.93;96624.50;5110808;28;19923;-57
2022/11/18 13:57:50;;;;;;;;;;;;;;;8.14;84.89;96620.19;5103679;28;20327;-57
2022/11/18 14:00:24;;;;;;;;;;;;;;;8.18;84.83;96620.34;5111212;27;19924;-56
2022/11/18 14:02:56;;;;;;;;;;;;;;;8.07;85.62;96618.00;5109076;28;19955;-56
2022/11/18 14:08:21;;;;;;;;;;;;;;;8.19;85.96;96619.22;5110060;27;19924;-57
2022/11/18 14:10:50;;;;;;;;;;;;;;;8.21;85.75;96625.09;5111529;27;19923;-57
2022/11/18 14:13:24;;;;;;;;;;;;;;;8.19;85.63;96624.63;5100451;28;20741;-56
2022/11/18 14:15:55;;;;;;;;;;;;;;;8.27;84.83;96629.22;5115572;27;19928;-56
2022/11/18 14:18:31;;;;;;;;;;;;;;;8.28;84.90;96625.38;5087959;27;19927;-56
2022/11/18 14:21:00;;;;;;;;;;;;;;;8.33;84.39;96628.69;5107926;28;19923;-57
2022/11/18 14:23:53;;;;;;;;;;;;;;;8.36;83.55;96635.38;5098962;28;20445;-56
2022/11/18 14:26:27;;;;;;;;;;;;;;;8.34;84.10;96632.97;5106362;28;20269;-56
2022/11/18 14:28:56;;;;;;;;;;;;;;;8.40;83.42;96639.81;5104989;28;19936;-56
2022/11/18 14:31:26;;;;;;;;;;;;;;;8.22;84.30;96632.88;5115626;27;19935;-56